• Join FlightAware (Why Join?)
  • Login
  • US Flag 
05:39AM EDT


 

Airport Tracker/Info


-or-


 

Live Flight TrackerFlight Track Log ✈ AFR1326 ✈ 23-Jul-2013 ✈ LFPG / CDG - LIPZ / VCE

Flight Track Log - Related Links

Times and Time Zones

All times are in EDT time to prevent confusion due to time zone crossing. See the AFR1326 flight status page for this flight to view local times or setup timezone preferences in your user account.

Time Position Orientation Groundspeed Altitude Reporting Facility
EDT Latitude Longitude Course Direction KTS MPH feet Rate Location/Type
03:18PM 49.0340 2.5760 101° East 2 2  Level FlightAware
03:19PM 49.0340 2.5770 90° East 2 2 60 Level FlightAware
03:20PM 49.0330 2.5780 147° Southeast 2 2 60 Level FlightAware
03:21PM 49.0330 2.5790 90° East 2 2 60 Level FlightAware
03:22PM 49.0320 2.5790 180° South 2 2 60 Level FlightAware
03:23PM 49.0320 2.5800 90° East 2 2 60 Level FlightAware
03:26PM 48.9323 2.9136 114° Southeast  Level Estimated
03:27PM 48.8905 3.0522 115° Southeast  Level Estimated
03:28PM 48.8535 3.1743 115° Southeast  Level Estimated
03:28PM 49.0300 2.5840 115° Southeast 22 25  Level FlightAware
03:28PM 49.0300 2.5880 90° East 22 25 120 Level FlightAware
03:30PM 49.0300 2.6000 90° East 21 24 120 Level FlightAware
03:31PM 49.0270 2.6040 139° Southeast 25 29 180 Level FlightAware
03:31PM 49.0240 2.6050 168° South 25 29 240 Level FlightAware
03:32PM 48.9970 2.5640 225° Southwest 18 21 240 Level FlightAware
03:32PM 48.9950 2.5640 180° South 10 12 300 Level FlightAware
03:34PM 48.9940 2.5670 117° Southeast 16 18 360 Level FlightAware
03:34PM 48.9930 2.5650 233° Southwest 10 12 720 Level FlightAware
03:35PM 48.9930 2.5640 270° West 7 8 840 Level FlightAware
03:35PM 48.9920 2.5460 265° West 155 178 1,320 Level FlightAware
03:35PM 48.9910 2.5190 267° West 153 176 1,200 2,580 Climbing FlightAware
03:36PM 48.9890 2.4860 265° West 153 176 2,400 2,400 Climbing FlightAware
03:36PM 48.9870 2.4650 262° West 150 173 3,200 2,100 Climbing FlightAware
03:37PM 48.9860 2.4430 266° West 164 189 3,800 1,560 Climbing FlightAware
03:37PM 48.9840 2.4040 266° West 203 234 4,500 1,500 Climbing FlightAware
03:38PM 48.9820 2.3640 266° West 236 272 5,200 2,700 Climbing FlightAware
03:38PM 48.9750 2.3170 257° West 234 269 7,000 3,660 Climbing FlightAware
03:38PM 48.9670 2.3060 222° Southwest 226 260 7,600 3,360 Climbing FlightAware
03:39PM 48.9470 2.2970 196° South 223 257 8,700 3,180 Climbing FlightAware
03:39PM 48.9380 2.3010 164° South 224 258 9,200 2,520 Climbing FlightAware
03:39PM 48.9240 2.3170 143° Southeast 245 282 9,800 1,980 Climbing FlightAware
03:39PM 48.9170 2.3400 115° Southeast 265 305 10,200 1,500 Climbing FlightAware
03:39PM 48.9170 2.3630 90° East 290 334 10,400 1,200 Climbing FlightAware
03:40PM 48.9200 2.4650 87° East 355 409 11,300 1,620 Climbing FlightAware
03:41PM 48.9090 2.5560 100° East 374 430 12,700 2,160 Climbing FlightAware
03:41PM 48.8920 2.6570 104° East 391 450 14,200 2,700 Climbing FlightAware
03:42PM 48.8730 2.7740 104° East 398 458 16,300 2,760 Climbing FlightAware
03:43PM 48.8490 2.9200 104° East 405 466 18,600 2,340 Climbing FlightAware
03:44PM 48.8280 3.0510 104° East 422 486 20,100 1,800 Climbing FlightAware
03:44PM 48.8130 3.1420 104° East 434 499 21,100 1,800 Climbing FlightAware
03:45PM 48.7880 3.2900 104° East 438 504 22,600 1,860 Climbing FlightAware
03:46PM 48.7610 3.4240 107° East 450 518 23,800 1,680 Climbing FlightAware
03:47PM 48.7300 3.5830 106° East 451 519 25,400 1,620 Climbing FlightAware
03:47PM 48.7060 3.7070 106° East 457 526 26,400 1,380 Climbing FlightAware
03:48PM 48.6810 3.8310 107° East 462 532 27,300 1,260 Climbing FlightAware
03:49PM 48.6560 3.9590 106° East 472 543 28,100 1,200 Climbing FlightAware
03:49PM 48.6280 4.0970 107° East 476 548 29,000 1,380 Climbing FlightAware
03:50PM 48.6020 4.2230 107° East 471 542 30,100 1,560 Climbing FlightAware
03:51PM 48.5770 4.3460 107° East 470 541 31,100 1,380 Climbing FlightAware
03:52PM 48.5480 4.4910 107° East 470 541 32,100 1,500 Climbing FlightAware
03:52PM 48.5210 4.6190 108° East 463 533 33,300 1,440 Climbing FlightAware
03:53PM 48.4950 4.7460 107° East 465 535 34,100 1,080 Climbing FlightAware
03:54PM 48.4660 4.8830 108° East 460 529 34,900 660 Climbing FlightAware
03:54PM 48.4450 4.9840 107° East 446 513 35,000 60 Climbing FlightAware
03:55PM 48.4150 5.1270 107° East 453 521 35,000  Level FlightAware
03:56PM 48.3880 5.2520 108° East 457 526 35,000  Level FlightAware
03:56PM 48.3620 5.3740 108° East 457 526 35,000  Level FlightAware
03:57PM 48.3320 5.5140 108° East 457 526 35,000  Level FlightAware
03:58PM 48.3050 5.6400 108° East 458 527 35,000  Level FlightAware
03:58PM 48.2790 5.7580 108° East 460 529 35,000  Level FlightAware
03:59PM 48.2590 5.8500 108° East 461 531 35,000  Level FlightAware
04:00PM 48.2270 5.9940 108° East 461 531 35,000  Level FlightAware
04:01PM 48.1980 6.1280 108° East 460 529 35,000  Level FlightAware
04:01PM 48.1750 6.2300 109° East 459 528 35,000  Level FlightAware
04:02PM 48.1440 6.3690 108° East 463 533 35,000  Level FlightAware
04:03PM 48.1180 6.4870 108° East 466 536 35,000  Level FlightAware
04:03PM 48.0860 6.6240 109° East 467 537 35,000  Level FlightAware
04:04PM 48.0570 6.7550 108° East 465 535 35,000  Level FlightAware
04:05PM 48.0280 6.8790 109° East 464 534 35,000  Level FlightAware
04:06PM 47.9800 7.0010 120° Southeast 463 533 35,000  Level FlightAware
04:06PM 47.9310 7.1040 125° Southeast 464 534 35,000  Level FlightAware
04:07PM 47.8690 7.2320 126° Southeast 465 535 35,000  Level FlightAware
04:08PM 47.7800 7.4160 126° Southeast 466 536 35,000  Level FlightAware
04:09PM 47.7280 7.5230 126° Southeast 464 534 35,000  Level FlightAware
04:10PM 47.6720 7.6370 126° Southeast 462 532 35,000  Level FlightAware
04:10PM 47.6330 7.7180 126° Southeast 464 534 35,000  Level FlightAware
04:11PM 47.5730 7.8390 126° Southeast 464 534 35,000  Level FlightAware
04:12PM 47.5160 7.9540 126° Southeast 461 531 35,000  Level FlightAware
04:12PM 47.4680 8.0520 126° Southeast 462 532 35,000  Level FlightAware
04:13PM 47.4190 8.1500 126° Southeast 464 534 35,000  Level FlightAware
04:14PM 47.3650 8.2590 126° Southeast 465 535 35,000  Level FlightAware
04:14PM 47.3060 8.3770 126° Southeast 466 536 35,000 60 Level FlightAware
04:15PM 47.2620 8.4640 127° Southeast 464 534 35,100  Climbing FlightAware
04:16PM 47.2130 8.5620 126° Southeast 461 531 35,000 -120 Descending FlightAware
04:16PM 47.1620 8.6630 127° Southeast 461 531 35,000  Level FlightAware
04:17PM 47.1040 8.7780 127° Southeast 462 532 35,000  Level FlightAware
04:18PM 47.0530 8.8770 127° Southeast 461 531 35,000 -300 Level FlightAware
04:18PM 46.9950 8.9900 127° Southeast 463 533 34,600 -600 Descending FlightAware
04:19PM 46.9340 9.1100 127° Southeast 469 540 34,100 -720 Descending FlightAware
04:20PM 46.8700 9.2340 127° Southeast 460 529 33,500 -720 Descending FlightAware
04:21PM 46.8180 9.3350 127° Southeast 458 527 33,100 -360 Descending FlightAware
04:21PM 46.7620 9.4430 127° Southeast 460 529 33,000 -120 Descending FlightAware
04:22PM 46.7080 9.5460 127° Southeast 456 525 33,000 -180 Level FlightAware
04:23PM 46.6540 9.6490 127° Southeast 458 527 32,800 -600 Descending FlightAware
04:23PM 46.6040 9.7460 127° Southeast 446 513 32,200 -900 Descending FlightAware
04:24PM 46.5640 9.8250 126° Southeast 445 512 31,700 -900 Descending FlightAware
04:25PM 46.5140 9.9210 127° Southeast 453 521 31,100 -1,020 Descending FlightAware
04:26PM 46.4510 10.0430 127° Southeast 463 533 30,200 -1,380 Descending FlightAware
04:26PM 46.4010 10.1370 128° Southeast 452 520 29,100 -1,920 Descending FlightAware
04:27PM 46.3470 10.2380 128° Southeast 440 506 27,600 -2,040 Descending FlightAware
04:28PM 46.2950 10.3360 128° Southeast 422 486 26,200 -1,740 Descending FlightAware
04:29PM 46.2320 10.4570 127° Southeast 409 471 24,800 -1,740 Descending FlightAware
04:29PM 46.1830 10.5500 127° Southeast 404 465 23,300 -2,280 Descending FlightAware
04:30PM 46.1240 10.6250 139° Southeast 392 451 21,600 -1,980 Descending FlightAware
04:31PM 46.0700 10.6920 139° Southeast 386 444 20,700 -1,140 Descending FlightAware
04:31PM 46.0090 10.7680 139° Southeast 379 436 20,000 -960 Descending FlightAware
04:32PM 45.9570 10.8320 139° Southeast 369 425 19,400 -960 Descending FlightAware
04:33PM 45.9110 10.8890 139° Southeast 364 419 18,800 -1,020 Descending FlightAware
04:33PM 45.8460 10.9690 139° Southeast 364 419 18,000 -1,020 Descending FlightAware
04:34PM 45.7980 11.0390 135° Southeast 373 429 17,300 -1,020 Descending FlightAware
04:35PM 45.7520 11.1270 127° Southeast 359 413 16,600 -960 Descending FlightAware
04:36PM 45.7110 11.2040 127° Southeast 359 413 16,000 -960 Descending FlightAware
04:36PM 45.6770 11.2700 126° Southeast 353 406 15,400 -1,200 Descending FlightAware
04:37PM 45.6390 11.3430 127° Southeast 351 404 14,500 -1,740 Descending FlightAware
04:37PM 45.5980 11.4190 128° Southeast 338 389 13,100 -2,100 Descending FlightAware
04:38PM 45.5610 11.4900 127° Southeast 331 381 11,800 -1,980 Descending FlightAware
04:39PM 45.5240 11.5590 127° Southeast 325 374 10,500 -1,440 Descending FlightAware
04:40PM 45.4840 11.6350 127° Southeast 297 342 9,800 -1,200 Descending FlightAware
04:40PM 45.4630 11.6740 128° Southeast 301 346 9,100 -1,680 Descending FlightAware
04:40PM 45.4500 11.6980 128° Southeast 299 344 8,700 -1,620 Descending FlightAware
04:41PM 45.4250 11.7450 127° Southeast 296 341 7,900 -1,560 Descending FlightAware
04:41PM 45.4080 11.7770 127° Southeast 294 338 7,300 -1,560 Descending FlightAware
04:42PM 45.3800 11.8220 132° Southeast 283 326 6,500 -1,320 Descending FlightAware
04:42PM 45.3490 11.8480 149° Southeast 283 326 6,100 -1,080 Descending FlightAware
04:42PM 45.3300 11.8630 151° Southeast 281 323 5,800 -960 Descending FlightAware
04:43PM 45.2900 11.8950 151° Southeast 279 321 5,300 -840 Descending FlightAware
04:43PM 45.2750 11.9060 153° Southeast 279 321 5,100 -1,080 Descending FlightAware
04:44PM 45.2400 11.9360 149° Southeast 266 306 4,500 -1,080 Descending FlightAware
04:44PM 45.2320 11.9480 133° Southeast 268 308 4,400 -960 Descending FlightAware
04:44PM 45.2260 11.9740 108° East 258 297 4,100 -1,080 Descending FlightAware
04:45PM 45.2420 12.0180 63° Northeast 238 274 3,600 -960 Descending FlightAware
04:45PM 45.2710 12.0560 43° Northeast 237 273 3,100 -600 Descending FlightAware
04:46PM 45.2930 12.0830 41° Northeast 238 274 3,000 -120 Descending FlightAware
04:46PM 45.3180 12.1140 41° Northeast 233 268 3,000  Level FlightAware
04:46PM 45.3370 12.1380 42° Northeast 212 244 3,000  Level FlightAware
04:47PM 45.3480 12.1520 42° Northeast 198 228 3,000 -180 Level FlightAware
04:47PM 45.3650 12.1730 41° Northeast 196 226 2,900 -720 Descending FlightAware
04:48PM 45.3860 12.1980 40° Northeast 176 203 2,400 -960 Descending FlightAware
04:48PM 45.3940 12.2090 44° Northeast 173 199 2,200 -840 Descending FlightAware
04:48PM 45.4110 12.2290 40° Northeast 153 176 1,800 -900 Descending FlightAware
04:49PM 45.4250 12.2470 42° Northeast 148 170 1,400 -780 Descending FlightAware
04:49PM 45.4400 12.2650 40° Northeast 148 170 1,100 -720 Descending FlightAware
04:50PM 45.4490 12.2750 38° Northeast 148 170 900 -780 Descending FlightAware
04:50PM 45.4620 12.2910 41° Northeast 150 173 600 -780 Descending FlightAware
04:50PM 45.4770 12.3100 42° Northeast 150 173 200 -480 Descending FlightAware
04:51PM 45.4880 12.3240 42° Northeast 150 173 200  Level FlightAware
04:51PM 45.4940 12.3300 35° Northeast 26 30 -480 Descending FlightAware
04:52PM 45.4960 12.3330 46° Northeast 26 30  Level FlightAware
04:52PM 45.4980 12.3290 306° West 16 18  Level FlightAware
04:53PM 45.4970 12.3270 234° Southwest 22 25  Level FlightAware
04:53PM 45.4950 12.3230 235° Southwest 20 23  Level FlightAware
04:56PM 45.5051 12.3519 63° Northeast  Level Estimated
04:57PM 45.5051 12.3519 46° Northeast  Level Estimated
04:58PM 45.5051 12.3519 46° Northeast  Level Estimated
04:59PM 45.5051 12.3519 46° Northeast  Level Estimated